TAF EPSY 271430Z 2715/2724 31008KT 9999 BKN030 PROB30 TEMPO 2715/2718 6000 -SHRA BKN013 BKN020CB=